Airfield :
LOGIN :

Register | Disclaimer

   EN    FR    IT 

 










Legend :    VFR   Marginal VFR   IFR   Intensive IFR   Very Intensive IFR
Visi :
Ceiling :
>= 8 km
>= 3000ft
5 to 8 km
1000 to 3000 ft
1500m to 5 km
500 to 1000 ft
800 to 1500m
200 to 500 ft
< 800m
< 200 ft
Symbols :   Thunderstorms  Fog  Heavy snow  Heavy precipitations  Wind > 20 kt
SIGMETs :     Misc.  Thunderstorms  Icing  Turbulence  Mountain Waves  Volcanic Ashes







- Airport Elevation : 1106 ft
- Download approach charts


LFSO - Nancy / Ochey

CURRENT METAR :
  • 200630Z AUTO 23009KT CAVOK 16/14 Q1014 NOSIG

EXPIRED METARs :
  • 200600Z AUTO 22009KT 9999 FEW025 BKN074 OVC094 17/13 Q1014 NOSIG
  • 200530Z AUTO 21010KT 9999 FEW028 OVC072 16/13 Q1014 NOSIG
  • 200500Z AUTO 18006KT 150V210 9999 BKN026 BKN033 OVC066 16/13 Q1014 NOSIG
  • 200430Z AUTO 16005KT 130V190 9999 SCT026 OVC068 16/13 Q1013
  • 200400Z AUTO 18005KT 9999 FEW038 OVC072 16/13 Q1013

TAF TAF LFSO
Valid from the 20 at 03:00 until the 21 at 03:00 UTC


200200Z 2003/2103 19008KT CAVOK
TEMPO 2010/2020 28010G20KT 4000 SHRA BKN025TCU
BECMG 2020/2022 VRB02KT
No reported NOTAMs for that airfield.



MET'MAP, your aeronautical weather chart ! - Copyright ORBIFLY December 2007 - Disclaimer

ORBIFLY MET'MAP TEAM :

Programming & Development : Alexandra Zaïnal
Concept & Development : Baudouin d'Aumeries
Co-Development & Prog : Marc-Olivier Méhu
Technical & hardware support : Manuel Goepfert

Contact : metmap@orbifly.com




SOURCES & CREDITS :

   NOAA